sensor_id;sensor_type;location;lat;lon;timestamp;pressure;altitude;pressure_sealevel;temperature;humidity
25869;BME280;13688;53.154;18.136;2023-04-07T00:01:27;101266.29;;;1.31;98.44
25869;BME280;13688;53.154;18.136;2023-04-07T00:06:50;101270.56;;;1.35;99.71
25869;BME280;13688;53.154;18.136;2023-04-07T00:12:12;101256.50;;;1.33;100.00
25869;BME280;13688;53.154;18.136;2023-04-07T00:17:35;101252.94;;;1.34;100.00
25869;BME280;13688;53.154;18.136;2023-04-07T00:22:57;101246.87;;;1.30;100.00
25869;BME280;13688;53.154;18.136;2023-04-07T00:28:20;101242.45;;;1.31;100.00
25869;BME280;13688;53.154;18.136;2023-04-07T00:33:42;101237.15;;;1.31;100.00
25869;BME280;13688;53.154;18.136;2023-04-07T00:39:07;101237.09;;;1.32;100.00
25869;BME280;13688;53.154;18.136;2023-04-07T00:44:29;101234.50;;;1.31;100.00
25869;BME280;13688;53.154;18.136;2023-04-07T00:49:52;101216.82;;;1.31;100.00
25869;BME280;13688;53.154;18.136;2023-04-07T00:55:14;101224.82;;;1.30;100.00
25869;BME280;13688;53.154;18.136;2023-04-07T01:00:54;101224.72;;;1.33;100.00
25869;BME280;13688;53.154;18.136;2023-04-07T01:06:17;101236.17;;;1.33;100.00
25869;BME280;13688;53.154;18.136;2023-04-07T01:11:56;101219.41;;;1.33;100.00
25869;BME280;13688;53.154;18.136;2023-04-07T01:17:34;101206.09;;;1.36;100.00
25869;BME280;13688;53.154;18.136;2023-04-07T01:23:01;101205.98;;;1.39;100.00
25869;BME280;13688;53.154;18.136;2023-04-07T01:34:30;101196.20;;;1.41;100.00
25869;BME280;13688;53.154;18.136;2023-04-07T01:39:54;101189.92;;;1.43;100.00
25869;BME280;13688;53.154;18.136;2023-04-07T01:45:19;101193.30;;;1.49;100.00
25869;BME280;13688;53.154;18.136;2023-04-07T01:50:43;101191.41;;;1.52;100.00
25869;BME280;13688;53.154;18.136;2023-04-07T01:56:07;101187.89;;;1.52;100.00
25869;BME280;13688;53.154;18.136;2023-04-07T02:01:29;101178.10;;;1.54;100.00
25869;BME280;13688;53.154;18.136;2023-04-07T02:06:55;101178.97;;;1.54;100.00
25869;BME280;13688;53.154;18.136;2023-04-07T02:12:21;101182.46;;;1.56;100.00
25869;BME280;13688;53.154;18.136;2023-04-07T02:17:46;101183.27;;;1.58;100.00
25869;BME280;13688;53.154;18.136;2023-04-07T02:23:12;101176.13;;;1.60;100.00
25869;BME280;13688;53.154;18.136;2023-04-07T02:28:35;101173.42;;;1.62;100.00
25869;BME280;13688;53.154;18.136;2023-04-07T02:33:57;101167.98;;;1.66;100.00
25869;BME280;13688;53.154;18.136;2023-04-07T02:39:19;101167.06;;;1.67;100.00
25869;BME280;13688;53.154;18.136;2023-04-07T02:44:42;101157.14;;;1.72;100.00
25869;BME280;13688;53.154;18.136;2023-04-07T02:50:04;101154.36;;;1.77;100.00
25869;BME280;13688;53.154;18.136;2023-04-07T02:55:27;101145.36;;;1.81;100.00
25869;BME280;13688;53.154;18.136;2023-04-07T03:00:50;101157.50;;;1.88;100.00
25869;BME280;13688;53.154;18.136;2023-04-07T03:06:13;101151.93;;;1.96;100.00
25869;BME280;13688;53.154;18.136;2023-04-07T03:11:35;101136.64;;;2.03;100.00
25869;BME280;13688;53.154;18.136;2023-04-07T03:16:58;101135.58;;;2.08;100.00
25869;BME280;13688;53.154;18.136;2023-04-07T03:22:20;101134.50;;;2.14;100.00
25869;BME280;13688;53.154;18.136;2023-04-07T03:27:42;101130.73;;;2.19;100.00
25869;BME280;13688;53.154;18.136;2023-04-07T03:33:05;101122.56;;;2.25;100.00
25869;BME280;13688;53.154;18.136;2023-04-07T03:38:27;101121.70;;;2.25;100.00
25869;BME280;13688;53.154;18.136;2023-04-07T03:43:50;101123.30;;;2.29;100.00
25869;BME280;13688;53.154;18.136;2023-04-07T03:49:13;101121.45;;;2.31;100.00
25869;BME280;13688;53.154;18.136;2023-04-07T03:54:35;101130.12;;;2.36;100.00
25869;BME280;13688;53.154;18.136;2023-04-07T03:59:58;101123.83;;;2.39;100.00
25869;BME280;13688;53.154;18.136;2023-04-07T04:05:21;101134.38;;;2.40;100.00
25869;BME280;13688;53.154;18.136;2023-04-07T04:10:43;101124.60;;;2.42;100.00
25869;BME280;13688;53.154;18.136;2023-04-07T04:16:06;101124.41;;;2.47;100.00
25869;BME280;13688;53.154;18.136;2023-04-07T04:21:29;101127.87;;;2.49;100.00
25869;BME280;13688;53.154;18.136;2023-04-07T04:26:52;101124.28;;;2.50;100.00
25869;BME280;13688;53.154;18.136;2023-04-07T04:32:14;101118.82;;;2.54;100.00
25869;BME280;13688;53.154;18.136;2023-04-07T04:37:36;101120.48;;;2.57;100.00
25869;BME280;13688;53.154;18.136;2023-04-07T04:42:59;101120.35;;;2.60;100.00
25869;BME280;13688;53.154;18.136;2023-04-07T04:48:22;101127.30;;;2.64;100.00
25869;BME280;13688;53.154;18.136;2023-04-07T04:53:44;101121.92;;;2.66;100.00
25869;BME280;13688;53.154;18.136;2023-04-07T04:59:07;101133.28;;;2.69;100.00
25869;BME280;13688;53.154;18.136;2023-04-07T05:04:31;101126.02;;;2.74;100.00
25869;BME280;13688;53.154;18.136;2023-04-07T05:09:54;101132.92;;;2.78;100.00
25869;BME280;13688;53.154;18.136;2023-04-07T05:15:16;101131.03;;;2.82;100.00
25869;BME280;13688;53.154;18.136;2023-04-07T05:20:39;101136.08;;;2.88;100.00
25869;BME280;13688;53.154;18.136;2023-04-07T05:26:03;101120.05;;;2.91;100.00
25869;BME280;13688;53.154;18.136;2023-04-07T05:31:26;101126.95;;;2.95;100.00
25869;BME280;13688;53.154;18.136;2023-04-07T05:36:49;101131.23;;;2.99;100.00
25869;BME280;13688;53.154;18.136;2023-04-07T05:42:12;101139.88;;;3.04;100.00
25869;BME280;13688;53.154;18.136;2023-04-07T05:47:35;101134.33;;;3.10;100.00
25869;BME280;13688;53.154;18.136;2023-04-07T05:52:59;101131.53;;;3.13;100.00
25869;BME280;13688;53.154;18.136;2023-04-07T05:58:22;101126.95;;;3.17;100.00
25869;BME280;13688;53.154;18.136;2023-04-07T06:03:44;101124.29;;;3.17;100.00
25869;BME280;13688;53.154;18.136;2023-04-07T06:09:07;101129.30;;;3.25;100.00
25869;BME280;13688;53.154;18.136;2023-04-07T06:14:35;101122.75;;;3.33;100.00
25869;BME280;13688;53.154;18.136;2023-04-07T06:19:54;101134.10;;;3.37;100.00
25869;BME280;13688;53.154;18.136;2023-04-07T06:25:17;101137.38;;;3.43;100.00
25869;BME280;13688;53.154;18.136;2023-04-07T06:30:39;101140.66;;;3.50;100.00
25869;BME280;13688;53.154;18.136;2023-04-07T06:36:02;101133.55;;;3.51;100.00
25869;BME280;13688;53.154;18.136;2023-04-07T06:41:24;101129.81;;;3.55;100.00
25869;BME280;13688;53.154;18.136;2023-04-07T06:46:47;101130.68;;;3.55;100.00
25869;BME280;13688;53.154;18.136;2023-04-07T06:52:10;101134.95;;;3.59;100.00
25869;BME280;13688;53.154;18.136;2023-04-07T06:57:33;101131.05;;;3.68;100.00
25869;BME280;13688;53.154;18.136;2023-04-07T07:02:55;101126.13;;;3.79;100.00
25869;BME280;13688;53.154;18.136;2023-04-07T07:08:18;101132.78;;;3.89;100.00
25869;BME280;13688;53.154;18.136;2023-04-07T07:13:42;101133.23;;;3.99;100.00
25869;BME280;13688;53.154;18.136;2023-04-07T07:19:04;101136.36;;;4.09;100.00
25869;BME280;13688;53.154;18.136;2023-04-07T07:24:27;101136.14;;;4.13;100.00
25869;BME280;13688;53.154;18.136;2023-04-07T07:29:49;101141.39;;;4.15;100.00
25869;BME280;13688;53.154;18.136;2023-04-07T07:35:13;101148.17;;;4.22;100.00
25869;BME280;13688;53.154;18.136;2023-04-07T07:40:36;101148.97;;;4.24;100.00
25869;BME280;13688;53.154;18.136;2023-04-07T07:45:58;101152.23;;;4.30;100.00
25869;BME280;13688;53.154;18.136;2023-04-07T07:51:21;101150.35;;;4.33;100.00
25869;BME280;13688;53.154;18.136;2023-04-07T07:56:43;101145.41;;;4.44;100.00
25869;BME280;13688;53.154;18.136;2023-04-07T08:02:07;101143.48;;;4.47;100.00
25869;BME280;13688;53.154;18.136;2023-04-07T08:07:30;101140.25;;;4.59;100.00
25869;BME280;13688;53.154;18.136;2023-04-07T08:12:53;101139.16;;;4.82;100.00
25869;BME280;13688;53.154;18.136;2023-04-07T08:18:16;101134.85;;;4.80;100.00
25869;BME280;13688;53.154;18.136;2023-04-07T08:23:38;101136.93;;;4.92;100.00
25869;BME280;13688;53.154;18.136;2023-04-07T08:29:04;101139.97;;;5.03;100.00
25869;BME280;13688;53.154;18.136;2023-04-07T08:34:27;101149.09;;;5.16;100.00
25869;BME280;13688;53.154;18.136;2023-04-07T08:39:50;101147.12;;;5.20;100.00
25869;BME280;13688;53.154;18.136;2023-04-07T08:45:13;101143.76;;;5.53;100.00
25869;BME280;13688;53.154;18.136;2023-04-07T08:50:37;101145.90;;;5.81;100.00
25869;BME280;13688;53.154;18.136;2023-04-07T08:56:05;101152.18;;;5.80;100.00
25869;BME280;13688;53.154;18.136;2023-04-07T09:01:29;101153.59;;;6.04;100.00
25869;BME280;13688;53.154;18.136;2023-04-07T09:06:54;101160.36;;;5.94;100.00
25869;BME280;13688;53.154;18.136;2023-04-07T09:12:16;101156.48;;;5.82;100.00
25869;BME280;13688;53.154;18.136;2023-04-07T09:17:40;101160.19;;;5.80;100.00
25869;BME280;13688;53.154;18.136;2023-04-07T09:23:02;101151.09;;;6.01;100.00
25869;BME280;13688;53.154;18.136;2023-04-07T09:28:42;101154.67;;;6.17;100.00
25869;BME280;13688;53.154;18.136;2023-04-07T09:34:26;101151.38;;;6.29;100.00
25869;BME280;13688;53.154;18.136;2023-04-07T09:39:55;101138.22;;;6.42;100.00
25869;BME280;13688;53.154;18.136;2023-04-07T09:45:24;101141.03;;;6.72;100.00
25869;BME280;13688;53.154;18.136;2023-04-07T09:50:48;101124.23;;;6.70;98.93
25869;BME280;13688;53.154;18.136;2023-04-07T09:56:11;101124.46;;;6.66;97.43
25869;BME280;13688;53.154;18.136;2023-04-07T10:01:34;101125.52;;;6.95;97.23
25869;BME280;13688;53.154;18.136;2023-04-07T10:07:01;101117.16;;;7.16;96.97
25869;BME280;13688;53.154;18.136;2023-04-07T10:12:24;101109.05;;;7.64;96.31
25869;BME280;13688;53.154;18.136;2023-04-07T10:17:51;101110.87;;;7.63;94.86
25869;BME280;13688;53.154;18.136;2023-04-07T10:23:18;101114.72;;;7.73;93.73
25869;BME280;13688;53.154;18.136;2023-04-07T10:28:44;101118.41;;;7.71;92.49
25869;BME280;13688;53.154;18.136;2023-04-07T10:34:10;101114.75;;;7.58;91.39
25869;BME280;13688;53.154;18.136;2023-04-07T10:39:32;101112.36;;;7.53;90.91
25869;BME280;13688;53.154;18.136;2023-04-07T10:44:55;101116.22;;;7.63;90.88
25869;BME280;13688;53.154;18.136;2023-04-07T10:50:23;101111.96;;;7.89;90.71
25869;BME280;13688;53.154;18.136;2023-04-07T10:55:50;101110.84;;;8.08;90.46
25869;BME280;13688;53.154;18.136;2023-04-07T11:01:15;101116.36;;;7.90;89.68
25869;BME280;13688;53.154;18.136;2023-04-07T11:06:47;101117.11;;;7.78;89.58
25869;BME280;13688;53.154;18.136;2023-04-07T11:12:22;101118.89;;;7.63;89.80
25869;BME280;13688;53.154;18.136;2023-04-07T11:17:45;101108.31;;;7.76;90.14
25869;BME280;13688;53.154;18.136;2023-04-07T11:23:26;101111.63;;;7.65;90.33
25869;BME280;13688;53.154;18.136;2023-04-07T11:28:56;101097.17;;;7.54;90.62
25869;BME280;13688;53.154;18.136;2023-04-07T11:34:21;101100.19;;;7.78;91.02
25869;BME280;13688;53.154;18.136;2023-04-07T11:39:52;101090.70;;;8.30;90.81
25869;BME280;13688;53.154;18.136;2023-04-07T11:45:24;101088.84;;;9.15;88.58
25869;BME280;13688;53.154;18.136;2023-04-07T11:50:47;101080.36;;;9.08;84.83
25869;BME280;13688;53.154;18.136;2023-04-07T11:56:17;101081.56;;;8.90;83.62
25869;BME280;13688;53.154;18.136;2023-04-07T12:01:46;101073.78;;;9.27;83.48
25869;BME280;13688;53.154;18.136;2023-04-07T12:07:13;101066.02;;;9.22;83.06
25869;BME280;13688;53.154;18.136;2023-04-07T12:12:36;101071.34;;;9.09;82.73
25869;BME280;13688;53.154;18.136;2023-04-07T12:18:01;101065.66;;;9.14;83.23
25869;BME280;13688;53.154;18.136;2023-04-07T12:23:24;101057.70;;;9.39;83.28
25869;BME280;13688;53.154;18.136;2023-04-07T12:28:47;101054.59;;;9.45;82.26
25869;BME280;13688;53.154;18.136;2023-04-07T12:34:11;101063.70;;;9.95;81.38
25869;BME280;13688;53.154;18.136;2023-04-07T12:39:33;101067.88;;;9.99;79.81
25869;BME280;13688;53.154;18.136;2023-04-07T12:44:56;101080.50;;;10.24;79.27
25869;BME280;13688;53.154;18.136;2023-04-07T12:50:19;101082.84;;;10.29;79.00
25869;BME280;13688;53.154;18.136;2023-04-07T12:55:41;101082.28;;;10.11;78.82
25869;BME280;13688;53.154;18.136;2023-04-07T13:01:05;101085.41;;;10.05;78.99
25869;BME280;13688;53.154;18.136;2023-04-07T13:06:28;101085.20;;;9.95;79.09
25869;BME280;13688;53.154;18.136;2023-04-07T13:11:53;101089.27;;;10.01;79.46
25869;BME280;13688;53.154;18.136;2023-04-07T13:17:16;101103.83;;;10.24;79.71
25869;BME280;13688;53.154;18.136;2023-04-07T13:22:38;101108.13;;;10.26;78.78
25869;BME280;13688;53.154;18.136;2023-04-07T13:28:03;101099.28;;;10.63;77.35
25869;BME280;13688;53.154;18.136;2023-04-07T13:33:28;101101.87;;;11.25;74.87
25869;BME280;13688;53.154;18.136;2023-04-07T13:38:51;101113.23;;;11.41;72.40
25869;BME280;13688;53.154;18.136;2023-04-07T13:44:13;101096.08;;;10.94;70.98
25869;BME280;13688;53.154;18.136;2023-04-07T13:49:36;101108.78;;;10.92;71.42
25869;BME280;13688;53.154;18.136;2023-04-07T13:54:58;101113.39;;;10.90;71.26
25869;BME280;13688;53.154;18.136;2023-04-07T14:00:22;101118.77;;;11.27;71.15
25869;BME280;13688;53.154;18.136;2023-04-07T14:05:46;101111.60;;;10.78;70.90
25869;BME280;13688;53.154;18.136;2023-04-07T14:11:10;101107.02;;;10.16;72.90
25869;BME280;13688;53.154;18.136;2023-04-07T14:16:36;101099.59;;;9.94;74.91
25869;BME280;13688;53.154;18.136;2023-04-07T14:22:00;101098.17;;;9.89;75.98
25869;BME280;13688;53.154;18.136;2023-04-07T14:27:22;101095.38;;;9.90;76.47
25869;BME280;13688;53.154;18.136;2023-04-07T14:32:45;101099.55;;;9.82;76.51
25869;BME280;13688;53.154;18.136;2023-04-07T14:38:09;101091.55;;;9.55;76.22
25869;BME280;13688;53.154;18.136;2023-04-07T14:43:33;101102.05;;;9.45;76.98
25869;BME280;13688;53.154;18.136;2023-04-07T14:48:58;101090.16;;;9.49;77.83
25869;BME280;13688;53.154;18.136;2023-04-07T14:54:21;101091.03;;;9.62;78.04
25869;BME280;13688;53.154;18.136;2023-04-07T14:59:44;101091.73;;;9.91;77.57
25869;BME280;13688;53.154;18.136;2023-04-07T15:05:07;101092.47;;;9.81;76.62
25869;BME280;13688;53.154;18.136;2023-04-07T15:10:31;101089.54;;;10.23;76.47
25869;BME280;13688;53.154;18.136;2023-04-07T15:15:54;101094.58;;;10.28;75.24
25869;BME280;13688;53.154;18.136;2023-04-07T15:21:24;101088.20;;;10.16;75.08
25869;BME280;13688;53.154;18.136;2023-04-07T15:26:47;101084.64;;;10.03;75.30
25869;BME280;13688;53.154;18.136;2023-04-07T15:32:10;101084.41;;;9.93;76.09
25869;BME280;13688;53.154;18.136;2023-04-07T15:37:33;101087.66;;;9.86;76.61
25869;BME280;13688;53.154;18.136;2023-04-07T15:42:56;101083.77;;;9.77;77.18
25869;BME280;13688;53.154;18.136;2023-04-07T15:48:20;101086.23;;;9.67;77.92
25869;BME280;13688;53.154;18.136;2023-04-07T15:53:42;101089.42;;;9.60;78.52
25869;BME280;13688;53.154;18.136;2023-04-07T15:59:04;101088.73;;;9.43;79.19
25869;BME280;13688;53.154;18.136;2023-04-07T16:04:27;101098.25;;;9.35;80.04
25869;BME280;13688;53.154;18.136;2023-04-07T16:09:50;101097.03;;;9.26;80.70
25869;BME280;13688;53.154;18.136;2023-04-07T16:15:13;101108.41;;;9.17;81.70
25869;BME280;13688;53.154;18.136;2023-04-07T16:20:38;101132.20;;;8.95;83.80
25869;BME280;13688;53.154;18.136;2023-04-07T16:26:00;101157.98;;;8.83;86.24
25869;BME280;13688;53.154;18.136;2023-04-07T16:31:23;101146.23;;;8.71;88.68
25869;BME280;13688;53.154;18.136;2023-04-07T16:36:46;101137.42;;;8.55;91.30
25869;BME280;13688;53.154;18.136;2023-04-07T16:42:08;101145.64;;;8.38;93.84
25869;BME280;13688;53.154;18.136;2023-04-07T16:47:31;101156.88;;;8.28;96.29
25869;BME280;13688;53.154;18.136;2023-04-07T16:52:53;101151.23;;;8.19;98.60
25869;BME280;13688;53.154;18.136;2023-04-07T16:58:16;101154.66;;;8.07;100.00
25869;BME280;13688;53.154;18.136;2023-04-07T17:03:38;101172.33;;;7.95;100.00
25869;BME280;13688;53.154;18.136;2023-04-07T17:09:02;101178.13;;;7.87;100.00
25869;BME280;13688;53.154;18.136;2023-04-07T17:14:28;101156.84;;;7.70;100.00
25869;BME280;13688;53.154;18.136;2023-04-07T17:19:51;101159.96;;;7.62;100.00
25869;BME280;13688;53.154;18.136;2023-04-07T17:25:13;101166.55;;;7.57;100.00
25869;BME280;13688;53.154;18.136;2023-04-07T17:30:36;101173.20;;;7.50;100.00
25869;BME280;13688;53.154;18.136;2023-04-07T17:36:01;101177.97;;;7.44;100.00
25869;BME280;13688;53.154;18.136;2023-04-07T17:41:24;101175.64;;;7.38;100.00
25869;BME280;13688;53.154;18.136;2023-04-07T17:46:49;101190.15;;;7.34;100.00
25869;BME280;13688;53.154;18.136;2023-04-07T17:52:11;101191.16;;;7.32;100.00
25869;BME280;13688;53.154;18.136;2023-04-07T17:57:34;101196.79;;;7.27;100.00
25869;BME280;13688;53.154;18.136;2023-04-07T18:02:59;101199.64;;;7.24;100.00
25869;BME280;13688;53.154;18.136;2023-04-07T18:08:23;101223.77;;;7.23;100.00
25869;BME280;13688;53.154;18.136;2023-04-07T18:13:46;101247.94;;;7.21;100.00
25869;BME280;13688;53.154;18.136;2023-04-07T18:19:09;101243.54;;;7.20;100.00
25869;BME280;13688;53.154;18.136;2023-04-07T18:24:32;101257.00;;;7.18;100.00
25869;BME280;13688;53.154;18.136;2023-04-07T18:29:56;101255.37;;;7.16;100.00
25869;BME280;13688;53.154;18.136;2023-04-07T18:35:19;101247.58;;;7.11;100.00
25869;BME280;13688;53.154;18.136;2023-04-07T18:40:41;101239.91;;;7.05;100.00
25869;BME280;13688;53.154;18.136;2023-04-07T18:46:05;101252.42;;;7.05;100.00
25869;BME280;13688;53.154;18.136;2023-04-07T18:51:27;101254.05;;;7.07;100.00
25869;BME280;13688;53.154;18.136;2023-04-07T18:56:51;101257.50;;;7.09;100.00
25869;BME280;13688;53.154;18.136;2023-04-07T19:02:13;101263.17;;;7.03;100.00
25869;BME280;13688;53.154;18.136;2023-04-07T19:07:36;101266.70;;;7.04;100.00
25869;BME280;13688;53.154;18.136;2023-04-07T19:12:58;101279.07;;;7.06;100.00
25869;BME280;13688;53.154;18.136;2023-04-07T19:18:21;101292.27;;;7.09;100.00
25869;BME280;13688;53.154;18.136;2023-04-07T19:23:45;101295.72;;;7.11;100.00
25869;BME280;13688;53.154;18.136;2023-04-07T19:29:09;101289.50;;;7.11;100.00
25869;BME280;13688;53.154;18.136;2023-04-07T19:34:32;101295.03;;;7.08;100.00
25869;BME280;13688;53.154;18.136;2023-04-07T19:39:54;101308.63;;;7.03;100.00
25869;BME280;13688;53.154;18.136;2023-04-07T19:45:17;101314.70;;;7.07;100.00
25869;BME280;13688;53.154;18.136;2023-04-07T19:50:40;101349.08;;;6.97;100.00
25869;BME280;13688;53.154;18.136;2023-04-07T19:56:03;101359.05;;;6.94;100.00
25869;BME280;13688;53.154;18.136;2023-04-07T20:01:26;101352.70;;;6.96;100.00
25869;BME280;13688;53.154;18.136;2023-04-07T20:06:49;101339.85;;;7.03;100.00
25869;BME280;13688;53.154;18.136;2023-04-07T20:12:11;101343.56;;;7.00;100.00
25869;BME280;13688;53.154;18.136;2023-04-07T20:17:34;101346.55;;;6.94;100.00
25869;BME280;13688;53.154;18.136;2023-04-07T20:22:57;101347.58;;;6.92;100.00
25869;BME280;13688;53.154;18.136;2023-04-07T20:28:19;101359.91;;;6.94;100.00
25869;BME280;13688;53.154;18.136;2023-04-07T20:33:41;101364.82;;;6.86;100.00
25869;BME280;13688;53.154;18.136;2023-04-07T20:39:04;101376.77;;;6.79;100.00
25869;BME280;13688;53.154;18.136;2023-04-07T20:44:26;101375.13;;;6.76;100.00
25869;BME280;13688;53.154;18.136;2023-04-07T20:49:49;101385.00;;;6.74;100.00
25869;BME280;13688;53.154;18.136;2023-04-07T20:55:11;101385.17;;;6.71;100.00
25869;BME280;13688;53.154;18.136;2023-04-07T21:00:34;101398.61;;;6.70;100.00
25869;BME280;13688;53.154;18.136;2023-04-07T21:05:57;101391.55;;;6.69;100.00
25869;BME280;13688;53.154;18.136;2023-04-07T21:11:19;101400.51;;;6.68;100.00
25869;BME280;13688;53.154;18.136;2023-04-07T21:16:42;101409.52;;;6.65;100.00
25869;BME280;13688;53.154;18.136;2023-04-07T21:22:04;101411.50;;;6.62;100.00
25869;BME280;13688;53.154;18.136;2023-04-07T21:27:27;101415.97;;;6.61;100.00
25869;BME280;13688;53.154;18.136;2023-04-07T21:32:50;101424.94;;;6.60;100.00
25869;BME280;13688;53.154;18.136;2023-04-07T21:38:12;101419.67;;;6.58;100.00
25869;BME280;13688;53.154;18.136;2023-04-07T21:43:35;101408.91;;;6.60;100.00
25869;BME280;13688;53.154;18.136;2023-04-07T21:48:58;101410.63;;;6.61;100.00
25869;BME280;13688;53.154;18.136;2023-04-07T21:54:22;101414.25;;;6.60;100.00
25869;BME280;13688;53.154;18.136;2023-04-07T21:59:45;101422.27;;;6.60;100.00
25869;BME280;13688;53.154;18.136;2023-04-07T22:05:07;101416.92;;;6.60;100.00
25869;BME280;13688;53.154;18.136;2023-04-07T22:10:30;101418.64;;;6.61;100.00
25869;BME280;13688;53.154;18.136;2023-04-07T22:15:53;101420.53;;;6.59;100.00
25869;BME280;13688;53.154;18.136;2023-04-07T22:21:16;101422.43;;;6.57;100.00
25869;BME280;13688;53.154;18.136;2023-04-07T22:26:39;101420.75;;;6.54;100.00
25869;BME280;13688;53.154;18.136;2023-04-07T22:32:02;101417.54;;;6.48;100.00
25869;BME280;13688;53.154;18.136;2023-04-07T22:37:25;101422.47;;;6.38;100.00
25869;BME280;13688;53.154;18.136;2023-04-07T22:42:47;101425.72;;;6.26;100.00
25869;BME280;13688;53.154;18.136;2023-04-07T22:48:10;101435.11;;;6.16;100.00
25869;BME280;13688;53.154;18.136;2023-04-07T22:53:32;101435.55;;;6.07;100.00
25869;BME280;13688;53.154;18.136;2023-04-07T22:58:55;101447.25;;;6.04;100.00
25869;BME280;13688;53.154;18.136;2023-04-07T23:04:17;101454.75;;;5.96;100.00
25869;BME280;13688;53.154;18.136;2023-04-07T23:09:39;101455.37;;;5.82;100.00
25869;BME280;13688;53.154;18.136;2023-04-07T23:15:02;101466.61;;;5.70;100.00
25869;BME280;13688;53.154;18.136;2023-04-07T23:20:25;101462.26;;;5.67;100.00
25869;BME280;13688;53.154;18.136;2023-04-07T23:25:48;101470.64;;;5.60;100.00
25869;BME280;13688;53.154;18.136;2023-04-07T23:31:10;101476.16;;;5.55;100.00
25869;BME280;13688;53.154;18.136;2023-04-07T23:36:32;101477.36;;;5.48;100.00
25869;BME280;13688;53.154;18.136;2023-04-07T23:41:55;101478.83;;;5.55;100.00
25869;BME280;13688;53.154;18.136;2023-04-07T23:47:17;101480.86;;;5.69;100.00
25869;BME280;13688;53.154;18.136;2023-04-07T23:52:39;101479.73;;;5.74;100.00
25869;BME280;13688;53.154;18.136;2023-04-07T23:58:02;101487.59;;;5.78;100.00
